Time,TemperatureF,DewpointF,PressureIn,WindDirection,WindDirectionDegrees,WindSpeedMPH,WindSpeedGustMPH,Humidity,HourlyPrecipIn,Conditions,Clouds,dailyrainin,SoftwareType,DateUTC
2013-07-21 00:01:00,56.0,45.0,30.29,North,0,5.0,9.0,66,0.00,,,0.00,,2013-07-21 06:01:00,
2013-07-21 00:11:00,56.0,45.0,30.30,North,2,5.0,6.0,67,0.00,,,0.00,,2013-07-21 06:11:00,
2013-07-21 00:22:00,56.0,45.0,30.30,North,0,6.0,8.0,67,0.00,,,0.00,,2013-07-21 06:22:00,
2013-07-21 00:32:00,55.0,44.0,30.30,North,356,6.0,8.0,66,0.00,,,0.00,,2013-07-21 06:32:00,
2013-07-21 00:42:00,55.0,44.0,30.30,North,0,2.0,5.0,66,0.00,,,0.00,,2013-07-21 06:42:00,
2013-07-21 00:52:00,54.0,44.0,30.30,North,0,0.0,1.0,69,0.00,,,0.00,,2013-07-21 06:52:00,
2013-07-21 01:01:00,54.0,45.0,30.30,North,0,1.0,3.0,71,0.00,,,0.00,,2013-07-21 07:01:00,
2013-07-21 01:11:00,54.0,44.0,30.30,North,357,5.0,6.0,69,0.00,,,0.00,,2013-07-21 07:11:00,
2013-07-21 01:22:00,55.0,44.0,30.30,North,358,5.0,7.0,67,0.00,,,0.00,,2013-07-21 07:22:00,
2013-07-21 01:32:00,55.0,44.0,30.30,NNW,348,3.0,5.0,66,0.00,,,0.00,,2013-07-21 07:32:00,
2013-07-21 01:43:00,55.0,44.0,30.29,North,0,2.0,5.0,67,0.00,,,0.00,,2013-07-21 07:43:00,
2013-07-21 01:52:00,55.0,45.0,30.29,North,1,6.0,8.0,68,0.00,,,0.00,,2013-07-21 07:52:00,
2013-07-21 02:01:00,55.0,45.0,30.29,North,359,6.0,6.0,68,0.00,,,0.00,,2013-07-21 08:01:00,
2013-07-21 02:11:00,54.0,44.0,30.29,North,352,6.0,8.0,69,0.00,,,0.00,,2013-07-21 08:11:00,
2013-07-21 02:22:00,54.0,44.0,30.29,North,357,5.0,6.0,69,0.00,,,0.00,,2013-07-21 08:22:00,
2013-07-21 02:33:00,54.0,44.0,30.29,North,350,6.0,10.0,70,0.00,,,0.00,,2013-07-21 08:33:00,
2013-07-21 02:43:00,54.0,44.0,30.29,North,351,5.0,5.0,70,0.00,,,0.00,,2013-07-21 08:43:00,
2013-07-21 02:52:00,53.0,43.0,30.28,NNW,336,2.0,3.0,70,0.00,,,0.00,,2013-07-21 08:52:00,
2013-07-21 03:02:00,53.0,43.0,30.28,North,352,6.0,7.0,70,0.00,,,0.00,,2013-07-21 09:02:00,
2013-07-21 03:12:00,53.0,43.0,30.28,NNW,344,5.0,8.0,70,0.00,,,0.00,,2013-07-21 09:12:00,
2013-07-21 03:22:00,53.0,43.0,30.28,North,353,3.0,5.0,70,0.00,,,0.00,,2013-07-21 09:22:00,
2013-07-21 03:32:00,53.0,43.0,30.27,NNW,346,5.0,8.0,70,0.00,,,0.00,,2013-07-21 09:32:00,
2013-07-21 03:42:00,53.0,44.0,30.27,NNW,341,5.0,8.0,72,0.00,,,0.00,,2013-07-21 09:42:00,
2013-07-21 03:52:00,52.0,43.0,30.27,NNW,335,6.0,9.0,72,0.00,,,0.00,,2013-07-21 09:52:00,
2013-07-21 04:01:00,53.0,44.0,30.27,NNW,334,5.0,7.0,72,0.00,,,0.00,,2013-07-21 10:01:00,
2013-07-21 04:11:00,53.0,43.0,30.27,NNW,344,7.0,10.0,70,0.00,,,0.00,,2013-07-21 10:11:00,
2013-07-21 04:22:00,52.0,43.0,30.27,NNW,338,7.0,10.0,71,0.00,,,0.00,,2013-07-21 10:22:00,
2013-07-21 04:32:00,52.0,43.0,30.27,NNW,347,5.0,7.0,71,0.00,,,0.00,,2013-07-21 10:32:00,
2013-07-21 04:43:00,52.0,43.0,30.27,NNW,344,5.0,9.0,71,0.00,,,0.00,,2013-07-21 10:43:00,
2013-07-21 04:52:00,53.0,43.0,30.27,North,351,5.0,7.0,69,0.00,,,0.00,,2013-07-21 10:52:00,
2013-07-21 05:02:00,53.0,43.0,30.27,North,357,5.0,6.0,68,0.00,,,0.00,,2013-07-21 11:02:00,
2013-07-21 05:12:00,53.0,43.0,30.27,North,0,3.0,5.0,68,0.00,,,0.00,,2013-07-21 11:12:00,
2013-07-21 05:22:00,53.0,43.0,30.27,North,358,2.0,5.0,70,0.00,,,0.00,,2013-07-21 11:22:00,
2013-07-21 05:32:00,53.0,43.0,30.27,NNW,346,3.0,3.0,68,0.00,,,0.00,,2013-07-21 11:32:00,
2013-07-21 05:43:00,53.0,43.0,30.27,North,0,5.0,7.0,69,0.00,,,0.00,,2013-07-21 11:43:00,
2013-07-21 05:52:00,52.0,43.0,30.27,NNW,345,6.0,8.0,70,0.00,,,0.00,,2013-07-21 11:52:00,
2013-07-21 06:01:00,52.0,43.0,30.27,North,354,6.0,8.0,71,0.00,,,0.00,,2013-07-21 12:01:00,
2013-07-21 06:11:00,52.0,43.0,30.27,North,355,5.0,7.0,71,0.00,,,0.00,,2013-07-21 12:11:00,
2013-07-21 06:22:00,52.0,43.0,30.27,North,358,5.0,7.0,71,0.00,,,0.00,,2013-07-21 12:22:00,
2013-07-21 06:32:00,52.0,43.0,30.27,North,349,5.0,7.0,71,0.00,,,0.00,,2013-07-21 12:32:00,
2013-07-21 06:43:00,52.0,43.0,30.28,NNW,346,5.0,6.0,71,0.00,,,0.00,,2013-07-21 12:43:00,
2013-07-21 06:53:00,52.0,42.0,30.28,North,357,6.0,9.0,69,0.00,,,0.00,,2013-07-21 12:53:00,
2013-07-21 07:01:00,53.0,43.0,30.28,North,352,5.0,7.0,68,0.00,,,0.00,,2013-07-21 13:01:00,
2013-07-21 07:12:00,55.0,43.0,30.28,NNW,341,7.0,9.0,63,0.00,,,0.00,,2013-07-21 13:12:00,
2013-07-21 07:22:00,55.0,43.0,30.28,NNW,338,6.0,9.0,64,0.00,,,0.00,,2013-07-21 13:22:00,
2013-07-21 07:32:00,55.0,43.0,30.28,NNW,341,6.0,9.0,64,0.00,,,0.00,,2013-07-21 13:32:00,
2013-07-21 07:42:00,55.0,43.0,30.28,NNW,336,5.0,10.0,64,0.00,,,0.00,,2013-07-21 13:42:00,
2013-07-21 07:52:00,55.0,43.0,30.28,NNW,337,6.0,9.0,65,0.00,,,0.00,,2013-07-21 13:52:00,
2013-07-21 08:01:00,56.0,44.0,30.28,NW,319,3.0,3.0,63,0.00,,,0.00,,2013-07-21 14:01:00,
2013-07-21 08:12:00,57.0,44.0,30.28,NNW,348,1.0,3.0,61,0.00,,,0.00,,2013-07-21 14:12:00,
2013-07-21 08:32:00,60.0,45.0,30.28,NNW,348,1.0,0.0,57,0.00,,,0.00,,2013-07-21 14:32:00,
2013-07-21 08:43:00,62.0,45.0,30.28,North,0,1.0,3.0,54,0.00,,,0.00,,2013-07-21 14:43:00,
2013-07-21 09:32:00,70.0,47.0,30.29,NE,46,0.0,0.0,44,0.00,,,0.00,,2013-07-21 15:32:00,
2013-07-21 13:32:00,82.0,45.0,30.27,South,189,1.0,3.0,27,0.00,,,0.00,,2013-07-21 19:32:00,
2013-07-21 13:42:00,81.0,44.0,30.27,SSW,198,8.0,10.0,27,0.00,,,0.00,,2013-07-21 19:42:00,
2013-07-21 14:01:00,81.0,43.0,30.26,SSE,157,9.0,15.0,26,0.00,,,0.00,,2013-07-21 20:01:00,
2013-07-21 14:11:00,79.0,43.0,30.27,SE,142,6.0,12.0,28,0.00,,,0.00,,2013-07-21 20:11:00,
2013-07-21 14:22:00,76.0,41.0,30.28,SSE,147,8.0,12.0,28,0.00,,,0.00,,2013-07-21 20:22:00,
2013-07-21 14:32:00,74.0,41.0,30.28,SSE,155,6.0,10.0,30,0.00,,,0.00,,2013-07-21 20:32:00,
2013-07-21 14:42:00,73.0,41.0,30.28,South,175,2.0,5.0,32,0.00,,,0.00,,2013-07-21 20:42:00,
2013-07-21 14:52:00,72.0,41.0,30.28,SSE,155,3.0,5.0,32,0.00,,,0.00,,2013-07-21 20:52:00,
2013-07-21 15:01:00,71.0,40.0,30.28,SSE,156,1.0,3.0,33,0.00,,,0.00,,2013-07-21 21:01:00,
2013-07-21 15:11:00,71.0,42.0,30.28,SSE,156,1.0,2.0,35,0.00,,,0.00,,2013-07-21 21:11:00,
2013-07-21 15:22:00,70.0,40.0,30.28,SSE,156,0.0,1.0,34,0.00,,,0.00,,2013-07-21 21:22:00,
2013-07-21 15:32:00,70.0,43.0,30.28,SSE,148,2.0,6.0,37,0.00,,,0.00,,2013-07-21 21:32:00,
2013-07-21 15:43:00,70.0,42.0,30.28,ESE,108,3.0,5.0,36,0.00,,,0.00,,2013-07-21 21:43:00,
2013-07-21 15:52:00,70.0,43.0,30.28,ESE,108,0.0,0.0,37,0.00,,,0.00,,2013-07-21 21:52:00,
2013-07-21 16:01:00,70.0,41.0,30.28,NNE,26,0.0,0.0,35,0.00,,,0.00,,2013-07-21 22:01:00,
2013-07-21 16:11:00,70.0,41.0,30.28,NNE,20,0.0,0.0,35,0.00,,,0.00,,2013-07-21 22:11:00,
2013-07-21 17:32:00,77.0,39.0,30.27,NE,52,1.0,3.0,26,0.00,,,0.00,,2013-07-21 23:32:00,
2013-07-21 17:42:00,75.0,40.0,30.27,NNE,30,0.0,0.0,28,0.00,,,0.00,,2013-07-21 23:42:00,
2013-07-21 18:11:00,72.0,42.0,30.27,WNW,298,2.0,3.0,34,0.00,,,0.00,,2013-07-22 00:11:00,
2013-07-21 18:22:00,71.0,39.0,30.27,West,268,6.0,8.0,31,0.00,,,0.00,,2013-07-22 00:22:00,
2013-07-21 18:32:00,70.0,40.0,30.27,SW,214,2.0,5.0,33,0.00,,,0.00,,2013-07-22 00:32:00,
2013-07-21 18:52:00,70.0,39.0,30.27,SW,235,3.0,7.0,32,0.00,,,0.00,,2013-07-22 00:52:00,
2013-07-21 19:02:00,70.0,40.0,30.27,WSW,250,2.0,5.0,33,0.00,,,0.00,,2013-07-22 01:02:00,
2013-07-21 19:11:00,68.0,39.0,30.27,West,280,5.0,6.0,34,0.00,,,0.00,,2013-07-22 01:11:00,
2013-07-21 19:21:00,68.0,38.0,30.27,WNW,283,5.0,5.0,33,0.00,,,0.00,,2013-07-22 01:21:00,
2013-07-21 19:32:00,68.0,39.0,30.28,WNW,283,2.0,3.0,35,0.00,,,0.00,,2013-07-22 01:32:00,
2013-07-21 19:42:00,68.0,38.0,30.28,WNW,284,1.0,2.0,33,0.00,,,0.00,,2013-07-22 01:42:00,
2013-07-21 19:52:00,68.0,41.0,30.28,WNW,284,0.0,0.0,37,0.00,,,0.00,,2013-07-22 01:52:00,
2013-07-21 20:02:00,67.0,39.0,30.28,WNW,284,1.0,2.0,36,0.00,,,0.00,,2013-07-22 02:02:00,
2013-07-21 20:11:00,65.0,41.0,30.27,NE,36,1.0,2.0,41,0.00,,,0.00,,2013-07-22 02:11:00,
2013-07-21 20:22:00,64.0,42.0,30.28,North,354,0.0,0.0,45,0.00,,,0.00,,2013-07-22 02:22:00,
2013-07-21 20:32:00,63.0,41.0,30.27,North,354,0.0,0.0,45,0.00,,,0.00,,2013-07-22 02:32:00,
2013-07-21 20:43:00,61.0,42.0,30.28,North,352,0.0,2.0,49,0.00,,,0.00,,2013-07-22 02:43:00,
2013-07-21 20:52:00,61.0,41.0,30.28,North,358,0.0,0.0,48,0.00,,,0.00,,2013-07-22 02:52:00,
2013-07-21 21:01:00,61.0,42.0,30.29,North,0,0.0,0.0,49,0.00,,,0.00,,2013-07-22 03:01:00,
2013-07-21 21:11:00,59.0,42.0,30.29,North,0,0.0,0.0,53,0.00,,,0.00,,2013-07-22 03:11:00,
2013-07-21 21:22:00,59.0,41.0,30.29,North,356,1.0,2.0,51,0.00,,,0.00,,2013-07-22 03:22:00,
2013-07-21 21:33:00,59.0,42.0,30.30,NNE,22,0.0,0.0,53,0.00,,,0.00,,2013-07-22 03:33:00,
2013-07-21 21:43:00,58.0,42.0,30.30,North,354,2.0,3.0,56,0.00,,,0.00,,2013-07-22 03:43:00,
2013-07-21 21:53:00,57.0,42.0,30.31,North,351,2.0,3.0,57,0.00,,,0.00,,2013-07-22 03:53:00,
2013-07-21 22:01:00,57.0,41.0,30.31,North,359,3.0,3.0,56,0.00,,,0.00,,2013-07-22 04:01:00,
2013-07-21 22:12:00,58.0,42.0,30.31,North,358,3.0,5.0,55,0.00,,,0.00,,2013-07-22 04:12:00,
2013-07-21 22:22:00,58.0,42.0,30.32,North,357,5.0,6.0,55,0.00,,,0.00,,2013-07-22 04:22:00,
2013-07-21 22:33:00,57.0,41.0,30.32,North,2,5.0,8.0,56,0.00,,,0.00,,2013-07-22 04:33:00,
2013-07-21 22:43:00,57.0,41.0,30.32,North,1,5.0,7.0,56,0.00,,,0.00,,2013-07-22 04:43:00,
2013-07-21 23:02:00,56.0,41.0,30.33,North,355,5.0,8.0,58,0.00,,,0.00,,2013-07-22 05:02:00,
2013-07-21 23:11:00,56.0,41.0,30.33,North,351,7.0,9.0,58,0.00,,,0.00,,2013-07-22 05:11:00,
2013-07-21 23:22:00,56.0,41.0,30.32,North,354,5.0,7.0,58,0.00,,,0.00,,2013-07-22 05:22:00,
2013-07-21 23:32:00,56.0,41.0,30.32,North,352,5.0,6.0,58,0.00,,,0.00,,2013-07-22 05:32:00,
2013-07-21 23:42:00,55.0,41.0,30.32,North,358,5.0,8.0,59,0.00,,,0.00,,2013-07-22 05:42:00,
2013-07-21 23:52:00,55.0,41.0,30.32,North,353,7.0,12.0,59,0.00,,,0.00,,2013-07-22 05:52:00,